Time;durP1;ratioP1;P1;durP2;ratioP2;P2;SDS_P1;SDS_P2;PMS_P1;PMS_P2;Temp;Humidity;BMP_temperature;BMP_pressure;BME280_temperature;BME280_humidity;BME280_pressure;Samples;Min_cycle;Max_cycle;Signal;HPM_P1;HPM_P2
2022/09/15 00:00:33;;;;;;;36.03;24.33;;;;;;;29.47;64.44;100926.50;5067264;28;70212;-41
2022/09/15 00:03:05;;;;;;;;;;;;;;;29.06;66.68;100922.97;5067508;28;67043;-45
2022/09/15 00:05:37;;;;;;;32.20;21.48;;;;;;;29.40;64.90;100924.63;5079198;27;70778;-42
2022/09/15 00:08:11;;;;;;;33.50;20.85;;;;;;;29.12;64.23;100861.91;5071517;27;66697;-41
2022/09/15 00:10:55;;;;;;;30.55;18.60;;;;;;;29.58;67.01;100931.25;5075621;28;71000;-41
2022/09/15 00:13:27;;;;;;;35.22;18.65;;;;;;;29.61;66.21;100936.22;5071464;28;66974;-42
2022/09/15 00:15:59;;;;;;;29.73;18.13;;;;;;;29.66;67.84;100933.78;5076256;28;70301;-42
2022/09/15 00:18:31;;;;;;;;;;;;;;;29.33;72.11;100928.38;5072410;28;66898;-41
2022/09/15 00:21:09;;;;;;;25.55;15.68;;;;;;;29.67;70.67;100940.00;5073572;28;70432;-40
2022/09/15 00:23:41;;;;;;;21.73;14.85;;;;;;;29.73;67.83;100923.78;5079650;28;66389;-40
2022/09/15 00:26:20;;;;;;;22.63;14.40;;;;;;;29.19;67.05;100833.00;5070585;28;70802;-40
2022/09/15 00:28:53;;;;;;;19.80;13.38;;;;;;;29.75;67.83;100918.97;5076933;28;66417;-38
2022/09/15 00:31:27;;;;;;;21.65;13.38;;;;;;;29.75;67.87;100915.44;5079262;28;70502;-40
2022/09/15 00:34:01;;;;;;;21.77;12.90;;;;;;;29.37;67.49;100853.97;5075675;27;67054;-39
2022/09/15 00:36:34;;;;;;;21.98;12.90;;;;;;;29.90;67.90;100928.75;5075543;27;70025;-40
2022/09/15 00:39:05;;;;;;;;;;;;;;;29.54;72.61;100938.97;5068002;28;66764;-39
2022/09/15 00:41:39;;;;;;;17.40;10.73;;;;;;;29.89;67.40;100954.09;5077531;27;70517;-42
2022/09/15 00:44:36;;;;;;;15.88;10.63;;;;;;;29.78;67.79;100948.31;5074532;28;66607;-41
2022/09/15 00:47:08;;;;;;;10.77;8.50;;;;;;;29.91;67.02;100952.84;5067153;28;70333;-42
2022/09/15 00:49:53;;;;;;;13.27;9.27;;;;;;;29.80;67.10;100932.69;5060491;28;66395;-41
2022/09/15 00:52:55;;;;;;;19.73;9.30;;;;;;;29.77;67.20;100954.75;5073313;28;71251;-42
2022/09/15 00:55:33;;;;;;;10.60;8.45;;;;;;;29.50;66.83;100880.13;5069361;28;67450;-42
2022/09/15 00:58:12;;;;;;;9.85;8.57;;;;;;;30.02;66.62;100964.88;5070989;28;69914;-42
2022/09/15 01:00:54;;;;;;;10.48;8.00;;;;;;;29.81;67.17;100926.25;5073225;28;66374;-42
2022/09/15 01:03:31;;;;;;;9.15;8.23;;;;;;;29.48;67.47;100874.94;5076836;28;69798;-42
2022/09/15 01:06:19;;;;;;;15.07;8.23;;;;;;;29.95;66.99;100964.06;5064107;28;66831;-43
2022/09/15 01:09:01;;;;;;;15.88;8.10;;;;;;;30.10;66.99;100975.47;5068837;28;70908;-42
2022/09/15 01:11:34;;;;;;;10.93;7.57;;;;;;;30.10;67.16;100975.47;5064696;28;66938;-43
2022/09/15 01:14:06;;;;;;;9.18;7.28;;;;;;;30.07;67.58;100965.09;5068607;28;70435;-43
2022/09/15 01:16:47;;;;;;;7.55;6.85;;;;;;;29.66;67.54;100895.91;5079288;28;66774;-42
2022/09/15 01:19:57;;;;;;;9.98;6.63;;;;;;;30.06;67.40;100982.34;5077440;27;70112;-42
2022/09/15 01:22:47;;;;;;;7.85;6.22;;;;;;;30.09;67.05;100981.94;5078487;28;66272;-43
2022/09/15 01:25:43;;;;;;;12.00;6.40;;;;;;;30.16;67.65;100980.03;5078165;27;70789;-42
2022/09/15 01:28:47;;;;;;;8.05;5.57;;;;;;;30.05;67.36;100978.00;5074169;28;66631;-44
2022/09/15 01:31:24;;;;;;;8.85;6.43;;;;;;;30.25;67.38;100976.06;5058885;27;70836;-43
2022/09/15 01:34:05;;;;;;;7.03;5.72;;;;;;;30.31;67.51;100973.56;5073820;28;66394;-43
2022/09/15 01:36:40;;;;;;;10.85;6.38;;;;;;;29.82;67.27;100883.81;5080306;27;70730;-42
2022/09/15 01:39:17;;;;;;;7.60;6.32;;;;;;;30.35;67.79;100972.09;5071725;28;66437;-42
2022/09/15 01:42:05;;;;;;;8.68;6.07;;;;;;;29.81;67.10;100895.66;5080716;27;70858;-43
2022/09/15 01:45:02;;;;;;;13.25;6.65;;;;;;;30.27;67.52;100976.69;5080662;28;67390;-41
2022/09/15 01:47:36;;;;;;;9.77;5.80;;;;;;;30.00;67.52;100912.88;5072514;28;71385;-43
2022/09/15 01:50:17;;;;;;;10.38;6.25;;;;;;;29.98;66.96;100917.69;5077520;27;66152;-43
2022/09/15 01:52:53;;;;;;;10.70;6.25;;;;;;;29.94;67.23;100919.13;5077063;28;70469;-43
2022/09/15 01:55:52;;;;;;;7.68;5.60;;;;;;;29.91;67.09;100927.69;5082548;28;66955;-43
2022/09/15 01:58:25;;;;;;;11.77;6.00;;;;;;;30.46;67.08;100987.66;5067643;28;70289;-43
2022/09/15 02:01:03;;;;;;;11.90;5.93;;;;;;;30.37;67.06;100983.50;5081776;28;66650;-43
2022/09/15 02:04:13;;;;;;;9.75;6.40;;;;;;;30.40;67.13;100992.06;5081993;27;70557;-43
2022/09/15 02:06:57;;;;;;;7.85;5.25;;;;;;;30.49;67.17;101003.47;5077333;28;66672;-42
2022/09/15 02:09:36;;;;;;;8.07;5.57;;;;;;;30.53;67.17;100988.44;5075292;27;71474;-42
2022/09/15 02:12:32;;;;;;;9.63;5.50;;;;;;;30.47;67.29;100981.19;5067895;28;67259;-46
2022/09/15 02:15:10;;;;;;;8.27;5.53;;;;;;;30.14;66.97;100914.47;5074819;28;70170;-43
2022/09/15 02:17:50;;;;;;;8.18;5.88;;;;;;;30.46;66.89;100971.44;5078922;28;66156;-43
2022/09/15 02:21:08;;;;;;;7.30;5.57;;;;;;;30.61;66.44;100976.53;5080025;28;70076;-43
2022/09/15 02:23:49;;;;;;;9.02;5.35;;;;;;;30.11;66.50;100890.56;5015714;28;66156;-43
2022/09/15 02:26:27;;;;;;;6.03;5.43;;;;;;;29.88;66.31;100855.09;5072915;28;71080;-42
2022/09/15 02:29:09;;;;;;;8.48;5.72;;;;;;;30.23;66.98;100898.88;5078541;28;66801;-42
2022/09/15 02:31:42;;;;;;;9.05;5.38;;;;;;;30.71;66.43;100983.16;5077988;27;70865;-43
2022/09/15 02:34:28;;;;;;;8.80;5.63;;;;;;;30.27;66.49;100916.34;5078518;28;67180;-43
2022/09/15 02:37:03;;;;;;;8.07;4.60;;;;;;;30.45;66.55;100932.72;5075882;28;70887;-43
2022/09/15 02:39:40;;;;;;;7.80;5.35;;;;;;;30.71;66.46;100971.50;5066530;28;65862;-42
2022/09/15 02:42:12;;;;;;;9.70;5.28;;;;;;;30.77;66.62;100986.06;5060158;28;70568;-42
2022/09/15 02:44:44;;;;;;;9.05;5.00;;;;;;;30.82;66.53;100980.84;5078100;28;66372;-42
2022/09/15 02:47:16;;;;;;;10.75;4.63;;;;;;;30.75;66.42;100967.28;5081441;27;70875;-41
2022/09/15 02:49:49;;;;;;;11.75;5.22;;;;;;;30.86;66.25;100987.47;5074678;28;66666;-43
2022/09/15 02:52:21;;;;;;;6.85;4.38;;;;;;;30.89;66.34;100993.28;5069930;28;70688;-43
2022/09/15 02:54:54;;;;;;;8.30;3.85;;;;;;;30.91;65.83;100980.34;5072465;28;66334;-42
2022/09/15 02:57:26;;;;;;;6.72;3.78;;;;;;;30.93;65.82;100980.97;5077073;28;70932;-43
2022/09/15 03:00:15;;;;;;;7.35;3.45;;;;;;;30.96;65.98;100992.44;5066687;28;65748;-43
2022/09/15 03:02:50;;;;;;;5.32;3.58;;;;;;;30.56;66.09;100912.22;5064136;27;70043;-43
2022/09/15 03:05:29;;;;;;;5.72;3.65;;;;;;;30.52;65.81;100913.72;5066075;28;65966;-43
2022/09/15 03:08:01;;;;;;;7.40;3.97;;;;;;;31.01;65.93;100996.16;5063923;28;69701;-42
2022/09/15 03:10:33;;;;;;;3.58;3.28;;;;;;;30.93;65.47;100985.56;5068397;28;66257;-43
2022/09/15 03:13:07;;;;;;;5.10;3.40;;;;;;;31.06;65.24;100999.00;5072507;28;70164;-42
2022/09/15 03:15:40;;;;;;;5.30;3.50;;;;;;;31.08;65.38;101001.50;5070111;28;66922;-43
2022/09/15 03:18:12;;;;;;;4.85;3.70;;;;;;;31.08;65.16;101007.75;5071181;27;70847;-42
2022/09/15 03:20:44;;;;;;;5.35;2.97;;;;;;;30.80;65.41;100961.28;5070719;28;67534;-44
2022/09/15 03:23:16;;;;;;;4.22;2.90;;;;;;;30.77;64.88;100937.31;5070599;27;70759;-42
2022/09/15 03:25:48;;;;;;;3.17;2.60;;;;;;;31.16;65.10;101001.25;5078450;27;66996;-43
2022/09/15 03:28:21;;;;;;;3.22;2.50;;;;;;;31.16;65.04;100996.66;5079025;28;70949;-43
2022/09/15 03:30:54;;;;;;;4.70;2.58;;;;;;;31.21;64.75;100989.75;5081350;28;66318;-43
2022/09/15 03:33:26;;;;;;;6.32;2.50;;;;;;;30.84;64.52;100919.16;5070094;28;71011;-42
2022/09/15 03:36:00;;;;;;;4.00;2.55;;;;;;;31.12;64.61;100968.34;5079985;27;66019;-42
2022/09/15 03:38:32;;;;;;;2.30;2.08;;;;;;;31.25;64.68;100986.38;5076802;28;70665;-42
2022/09/15 03:41:09;;;;;;;3.80;2.42;;;;;;;31.27;64.05;100983.44;5066688;28;66076;-42
2022/09/15 03:43:41;;;;;;;2.95;2.75;;;;;;;31.25;64.37;100963.88;5075014;27;70732;-40
2022/09/15 03:46:13;;;;;;;3.83;2.10;;;;;;;31.30;64.13;100950.47;5072989;27;66755;-43
2022/09/15 03:48:48;;;;;;;2.88;1.63;;;;;;;31.20;64.07;100939.31;5068114;28;71163;-42
2022/09/15 03:51:21;;;;;;;5.13;2.45;;;;;;;31.32;64.19;100948.38;5071930;28;67206;-43
2022/09/15 03:53:54;;;;;;;2.90;2.03;;;;;;;31.35;64.22;100958.78;5072556;27;70908;-42
2022/09/15 03:56:30;;;;;;;3.13;1.70;;;;;;;31.32;63.68;100948.38;5075367;28;67078;-42
2022/09/15 03:59:04;;;;;;;2.08;1.60;;;;;;;31.29;64.22;100932.56;5071921;28;69988;-42
2022/09/15 04:01:36;;;;;;;2.63;2.20;;;;;;;31.29;64.05;100927.16;5079504;28;67164;-42
2022/09/15 04:04:09;;;;;;;3.60;2.05;;;;;;;31.39;64.40;100938.34;5076784;27;70389;-42
2022/09/15 04:06:41;;;;;;;4.85;2.03;;;;;;;31.39;64.03;100935.63;5074645;28;66238;-42
2022/09/15 04:09:14;;;;;;;5.38;2.15;;;;;;;31.37;64.03;100930.44;5068831;27;70855;-43
2022/09/15 04:11:46;;;;;;;3.30;1.85;;;;;;;31.30;64.07;100910.66;5067150;28;66157;-43
2022/09/15 04:14:18;;;;;;;3.95;1.65;;;;;;;31.43;63.83;100930.59;5063617;28;69602;-43
2022/09/15 04:16:51;;;;;;;5.00;2.17;;;;;;;31.36;63.57;100917.09;5064877;28;66727;-43
2022/09/15 04:19:23;;;;;;;3.13;1.80;;;;;;;31.45;63.75;100928.47;5063698;28;70683;-43
2022/09/15 04:21:55;;;;;;;2.42;1.85;;;;;;;31.46;63.48;100932.88;5066501;28;67043;-42
2022/09/15 04:24:27;;;;;;;2.83;1.75;;;;;;;31.47;63.76;100920.97;5064748;28;70420;-44
2022/09/15 04:27:00;;;;;;;5.93;1.95;;;;;;;31.44;63.85;100908.69;5066459;27;66028;-42
2022/09/15 04:29:32;;;;;;;3.30;1.67;;;;;;;31.45;63.77;100896.78;5063973;28;70718;-42
2022/09/15 04:32:05;;;;;;;4.13;2.03;;;;;;;31.48;63.96;100888.22;5068570;28;66386;-42
2022/09/15 04:34:37;;;;;;;3.95;2.28;;;;;;;31.49;64.04;100884.44;5079892;28;71103;-42
2022/09/15 04:37:11;;;;;;;4.50;1.90;;;;;;;31.44;63.61;100869.91;5080451;27;66650;-42
2022/09/15 04:39:43;;;;;;;4.60;1.73;;;;;;;31.51;63.30;100866.06;5078405;27;70980;-42
2022/09/15 04:42:16;;;;;;;3.63;1.50;;;;;;;31.52;63.29;100850.63;5076410;28;66192;-42
2022/09/15 04:44:48;;;;;;;1.75;1.42;;;;;;;31.51;63.40;100852.53;5082205;28;70847;-42
2022/09/15 04:47:20;;;;;;;8.40;2.35;;;;;;;31.51;63.10;100844.38;5078047;27;66088;-43
2022/09/15 04:49:53;;;;;;;2.65;1.67;;;;;;;31.53;63.41;100853.09;5079174;27;70704;-42
2022/09/15 04:52:25;;;;;;;4.30;1.88;;;;;;;31.43;63.31;100825.72;5081621;28;65914;-41
2022/09/15 04:54:57;;;;;;;4.30;1.63;;;;;;;31.49;63.16;100824.81;5077477;27;69758;-42
2022/09/15 04:57:29;;;;;;;2.67;2.10;;;;;;;31.56;63.05;100820.13;5081152;28;67438;-42
2022/09/15 05:00:05;;;;;;;5.20;2.22;;;;;;;31.20;62.95;100755.03;5080524;28;70566;-42
2022/09/15 05:02:37;;;;;;;2.72;1.98;;;;;;;31.25;62.91;100757.91;5075320;28;67369;-43
2022/09/15 05:05:10;;;;;;;1.80;1.45;;;;;;;31.37;62.89;100773.22;5073849;27;70979;-44
2022/09/15 05:07:42;;;;;;;2.15;1.42;;;;;;;31.54;63.29;100789.72;5068810;28;66127;-43
2022/09/15 05:10:14;;;;;;;2.42;1.73;;;;;;;31.57;62.97;100789.25;5076048;28;70635;-44
2022/09/15 05:12:48;;;;;;;1.90;1.55;;;;;;;31.64;62.94;100791.03;5082516;27;66156;-43
2022/09/15 05:15:20;;;;;;;2.08;1.40;;;;;;;31.66;62.73;100791.66;5080579;28;70702;-44
2022/09/15 05:17:53;;;;;;;5.10;1.58;;;;;;;31.67;63.26;100779.75;5070635;27;65944;-43
2022/09/15 05:20:26;;;;;;;7.05;1.48;;;;;;;31.72;62.94;100779.88;5079427;27;70328;-44
2022/09/15 05:22:58;;;;;;;2.28;1.60;;;;;;;31.72;62.88;100779.88;5078551;27;66728;-43
2022/09/15 05:25:30;;;;;;;3.53;1.25;;;;;;;31.77;62.98;100771.91;5075325;27;70766;-44
2022/09/15 05:28:02;;;;;;;3.13;1.55;;;;;;;31.67;62.95;100752.63;5072952;28;67186;-43
2022/09/15 05:30:38;;;;;;;2.03;1.30;;;;;;;31.79;62.83;100758.94;5081947;27;70736;-43
2022/09/15 05:33:20;;;;;;;2.50;1.83;;;;;;;31.80;62.77;100755.16;5074772;27;66165;-43
2022/09/15 05:35:59;;;;;;;2.53;1.45;;;;;;;31.83;62.91;100762.84;5081857;28;70551;-42
2022/09/15 05:38:32;;;;;;;2.22;1.45;;;;;;;31.86;62.78;100748.81;5076709;28;66870;-42
2022/09/15 05:41:06;;;;;;;1.88;1.55;;;;;;;31.82;62.88;100753.06;5079975;28;70990;-42
2022/09/15 05:43:39;;;;;;;3.53;1.70;;;;;;;31.89;63.00;100748.34;5076207;27;67065;-42
2022/09/15 05:46:12;;;;;;;1.65;1.40;;;;;;;31.91;62.74;100746.28;5077710;27;70400;-42
2022/09/15 05:48:45;;;;;;;2.13;1.58;;;;;;;31.78;62.78;100714.69;5069281;28;66698;-42
2022/09/15 05:51:17;;;;;;;2.35;1.73;;;;;;;31.92;62.55;100734.34;5059079;28;69901;-43
2022/09/15 05:53:50;;;;;;;2.25;1.40;;;;;;;31.98;62.29;100730.75;5073314;28;66528;-43
2022/09/15 05:56:22;;;;;;;2.05;1.40;;;;;;;32.01;62.69;100727.56;5073968;27;70670;-43
2022/09/15 05:58:54;;;;;;;1.90;1.42;;;;;;;31.99;62.30;100721.53;5072118;27;66979;-44
2022/09/15 06:01:27;;;;;;;;;;;;;;;31.70;63.32;100701.47;5077412;27;69954;-43
2022/09/15 06:04:00;;;;;;;1.70;1.58;;;;;;;32.02;62.25;100706.69;5075866;28;66511;-42
2022/09/15 06:06:32;;;;;;;1.85;1.52;;;;;;;32.08;62.49;100691.34;5068339;28;70679;-43
2022/09/15 06:09:23;;;;;;;1.67;1.33;;;;;;;32.10;62.24;100689.25;5076792;28;67003;-44
2022/09/15 06:11:55;;;;;;;;;;;;;;;31.80;63.16;100695.50;5079257;28;71201;-43
2022/09/15 06:14:27;;;;;;;2.55;1.58;;;;;;;32.11;62.33;100688.16;5074001;27;67028;-43
2022/09/15 06:16:59;;;;;;;2.17;1.42;;;;;;;31.78;61.83;100627.09;5076084;28;70890;-43
2022/09/15 06:19:32;;;;;;;2.53;1.42;;;;;;;31.34;61.94;100537.84;5080749;27;66556;-42
2022/09/15 06:22:05;;;;;;;2.67;1.48;;;;;;;32.01;62.04;100638.03;5078538;27;70768;-43
2022/09/15 06:24:37;;;;;;;;;;;;;;;31.94;63.02;100669.84;5067492;28;66819;-43
2022/09/15 06:27:09;;;;;;;5.18;1.73;;;;;;;32.23;62.06;100664.56;5078021;28;70473;-44
2022/09/15 06:30:02;;;;;;;1.65;1.35;;;;;;;32.29;62.05;100658.22;5078282;27;66204;-43
2022/09/15 06:32:37;;;;;;;2.60;1.50;;;;;;;32.34;61.64;100680.03;5074017;28;70319;-44
2022/09/15 06:35:12;;;;;;;2.38;1.63;;;;;;;32.37;61.62;100668.72;5070537;28;67218;-43
2022/09/15 06:37:44;;;;;;;2.75;1.85;;;;;;;32.40;61.21;100672.84;5079539;27;70537;-43
2022/09/15 06:40:16;;;;;;;3.30;1.90;;;;;;;32.41;61.52;100669.09;5077417;28;66729;-44
2022/09/15 06:42:54;;;;;;;2.30;1.20;;;;;;;32.44;61.24;100658.56;5077061;28;70419;-44
2022/09/15 06:45:26;;;;;;;3.50;2.15;;;;;;;32.36;61.25;100634.50;5080461;27;66902;-43
2022/09/15 06:47:58;;;;;;;2.03;1.55;;;;;;;32.50;61.00;100645.97;5078221;28;70601;-43
2022/09/15 06:50:54;;;;;;;7.00;2.30;;;;;;;32.53;61.31;100660.97;5062076;28;66395;-44
2022/09/15 06:53:35;;;;;;;2.33;1.45;;;;;;;32.53;61.17;100660.97;5075593;28;71189;-44
2022/09/15 06:56:10;;;;;;;3.00;1.60;;;;;;;31.75;60.69;100519.09;5078354;28;67147;-44
2022/09/15 06:58:44;;;;;;;6.05;1.98;;;;;;;32.62;60.87;100651.38;5078959;27;70570;-42
2022/09/15 07:01:22;;;;;;;2.35;1.63;;;;;;;32.26;60.80;100583.53;5067808;28;67059;-44
2022/09/15 07:03:56;;;;;;;8.88;1.98;;;;;;;32.69;60.76;100654.81;5067494;28;70830;-44
2022/09/15 07:06:29;;;;;;;3.75;1.98;;;;;;;32.27;60.62;100578.94;5070582;28;67298;-43
2022/09/15 07:09:02;;;;;;;4.32;2.40;;;;;;;32.74;60.61;100644.06;5078207;27;70818;-43
2022/09/15 07:11:34;;;;;;;6.03;2.00;;;;;;;32.77;60.49;100638.16;5073929;28;66770;-43
2022/09/15 07:14:06;;;;;;;5.40;2.28;;;;;;;32.70;60.71;100610.28;5071098;28;70463;-44
2022/09/15 07:16:38;;;;;;;9.32;2.30;;;;;;;32.85;60.37;100626.09;5078729;27;66816;-43
2022/09/15 07:19:11;;;;;;;7.85;2.60;;;;;;;32.87;60.35;100635.63;5075711;27;70117;-42
2022/09/15 07:21:44;;;;;;;5.07;1.92;;;;;;;32.89;60.28;100621.81;5077156;28;66973;-42
2022/09/15 07:24:16;;;;;;;4.85;1.77;;;;;;;32.92;60.32;100627.59;5080419;28;70338;-42
2022/09/15 07:26:54;;;;;;;2.88;1.75;;;;;;;32.74;60.48;100597.91;5071911;28;67150;-43
2022/09/15 07:29:28;;;;;;;2.95;1.90;;;;;;;32.97;60.30;100639.66;5065083;28;70804;-43
2022/09/15 07:32:06;;;;;;;4.32;2.42;;;;;;;33.02;59.91;100637.06;5073702;28;66351;-43
2022/09/15 07:34:38;;;;;;;5.32;2.08;;;;;;;33.03;60.11;100634.09;5075240;28;70764;-42
2022/09/15 07:37:11;;;;;;;3.35;1.95;;;;;;;33.06;59.71;100640.94;5073889;28;66243;-42
2022/09/15 07:39:44;;;;;;;2.85;1.92;;;;;;;33.05;59.58;100628.44;5067220;28;70355;-43
2022/09/15 07:42:16;;;;;;;3.00;2.08;;;;;;;33.09;59.64;100645.91;5069080;28;66497;-45
2022/09/15 07:44:49;;;;;;;4.00;1.98;;;;;;;33.09;59.62;100640.47;5064476;27;70304;-42
2022/09/15 07:47:21;;;;;;;3.53;2.10;;;;;;;33.10;59.48;100645.66;5071404;28;67056;-44
2022/09/15 07:49:54;;;;;;;6.65;2.15;;;;;;;33.13;59.57;100638.94;5078360;28;71548;-45
2022/09/15 07:52:24;;;;;;;4.83;2.43;;;;;;;33.09;59.87;100632.31;5078593;28;67275;-42
2022/09/15 07:54:57;;;;;;;3.28;2.10;;;;;;;33.15;59.57;100625.91;5074215;28;71280;-42
2022/09/15 07:57:31;;;;;;;3.50;1.80;;;;;;;33.17;59.37;100623.78;5078541;28;66839;-43
2022/09/15 08:00:04;;;;;;;6.90;2.00;;;;;;;33.16;59.42;100613.97;5076115;28;70672;-42
2022/09/15 08:02:41;;;;;;;6.88;2.67;;;;;;;33.20;59.30;100617.03;5069260;27;66137;-42
2022/09/15 08:05:15;;;;;;;4.68;1.92;;;;;;;32.83;59.01;100555.69;5072483;28;69853;-43
2022/09/15 08:07:51;;;;;;;3.30;2.10;;;;;;;33.11;58.88;100598.38;5078674;27;66437;-43
2022/09/15 08:10:24;;;;;;;6.30;1.85;;;;;;;32.74;58.61;100535.44;5076999;28;70495;-43
2022/09/15 08:12:57;;;;;;;4.32;2.45;;;;;;;33.22;58.94;100615.72;5074379;28;66428;-44
2022/09/15 08:15:30;;;;;;;3.78;1.70;;;;;;;33.25;58.75;100622.56;5069935;28;70892;-44
2022/09/15 08:18:06;;;;;;;5.68;2.10;;;;;;;33.24;58.71;100619.03;5071755;28;66667;-42
2022/09/15 08:20:41;;;;;;;6.47;2.40;;;;;;;33.27;58.68;100620.44;5074488;27;70777;-44
2022/09/15 08:23:13;;;;;;;3.60;2.28;;;;;;;33.26;58.87;100616.06;5075404;28;66998;-44
2022/09/15 08:25:46;;;;;;;5.90;2.75;;;;;;;33.27;58.38;100604.94;5077874;28;71351;-44
2022/09/15 08:28:20;;;;;;;4.43;2.25;;;;;;;33.29;58.53;100607.41;5076080;28;66253;-43
2022/09/15 08:31:03;;;;;;;3.42;2.47;;;;;;;33.11;58.49;100589.41;5073854;28;70229;-43
2022/09/15 08:33:37;;;;;;;6.07;2.25;;;;;;;33.28;58.62;100611.22;5070704;28;66605;-43
2022/09/15 08:36:15;;;;;;;3.92;2.20;;;;;;;33.27;58.63;100607.66;5076962;28;70338;-42
2022/09/15 08:38:47;;;;;;;2.63;2.30;;;;;;;33.28;58.35;100601.16;5071850;28;66733;-43
2022/09/15 08:41:34;;;;;;;4.22;2.55;;;;;;;32.97;58.03;100558.97;5073059;28;70946;-42
2022/09/15 08:44:40;;;;;;;3.92;3.10;;;;;;;33.18;57.91;100600.94;5077148;28;66347;-42
2022/09/15 08:47:24;;;;;;;3.38;2.28;;;;;;;33.22;57.70;100602.13;5074276;28;70165;-43
2022/09/15 08:50:12;;;;;;;6.45;2.40;;;;;;;33.27;57.90;100596.78;5074032;28;67394;-43
2022/09/15 08:52:48;;;;;;;3.08;2.38;;;;;;;33.17;57.89;100585.72;5077210;28;70923;-43
2022/09/15 08:55:48;;;;;;;5.85;2.03;;;;;;;33.09;58.03;100577.94;5078928;28;66924;-42
2022/09/15 08:58:31;;;;;;;3.33;2.25;;;;;;;32.78;57.87;100519.47;5072565;28;70963;-44
2022/09/15 09:01:11;;;;;;;5.57;2.78;;;;;;;32.79;57.75;100513.81;5067288;27;66818;-43
2022/09/15 09:03:54;;;;;;;3.47;2.78;;;;;;;33.25;57.94;100593.50;5074496;28;70551;-42
2022/09/15 09:06:45;;;;;;;4.20;2.92;;;;;;;33.26;58.09;100595.13;5071973;27;67154;-42
2022/09/15 09:09:32;;;;;;;10.02;2.58;;;;;;;33.19;57.86;100605.34;5068905;28;70539;-42
2022/09/15 09:12:36;;;;;;;8.02;2.38;;;;;;;33.18;57.86;100602.84;5067076;28;66338;-42
2022/09/15 09:15:32;;;;;;;2.72;2.53;;;;;;;32.81;58.08;100544.25;5078430;28;70851;-42
2022/09/15 09:18:51;;;;;;;4.25;2.47;;;;;;;33.12;58.01;100615.50;5069923;28;66559;-43
2022/09/15 09:21:38;;;;;;;4.43;2.60;;;;;;;32.70;57.83;100545.09;5078279;27;70405;-43
2022/09/15 09:24:25;;;;;;;5.05;3.00;;;;;;;33.06;59.48;100616.50;5078560;28;66199;-44
2022/09/15 09:26:58;;;;;;;5.05;2.75;;;;;;;32.98;59.87;100611.41;5077026;28;70997;-44
2022/09/15 09:29:38;;;;;;;9.27;3.28;;;;;;;32.51;60.07;100532.75;5073797;28;67026;-43
2022/09/15 09:32:23;;;;;;;8.30;3.00;;;;;;;32.88;60.71;100623.72;5068807;28;70886;-43
2022/09/15 09:34:58;;;;;;;5.30;2.63;;;;;;;32.97;60.30;100607.03;5073298;28;67037;-42
2022/09/15 09:37:32;;;;;;;4.63;2.90;;;;;;;32.98;60.41;100612.22;5071560;28;70235;-42
2022/09/15 09:40:05;;;;;;;3.92;3.00;;;;;;;33.03;60.41;100617.78;5077774;28;66799;-42
2022/09/15 09:42:39;;;;;;;4.13;2.90;;;;;;;33.02;60.44;100613.44;5076835;28;70225;-44
2022/09/15 09:45:15;;;;;;;4.60;3.13;;;;;;;32.99;60.59;100615.75;5068480;28;65729;-42
2022/09/15 09:47:47;;;;;;;3.40;3.10;;;;;;;32.91;60.71;100614.25;5069943;28;70925;-43
2022/09/15 09:50:42;;;;;;;4.43;2.83;;;;;;;32.90;61.57;100628.91;5073487;28;66956;-42
2022/09/15 09:53:28;;;;;;;8.93;3.50;;;;;;;32.85;62.14;100626.91;5063174;28;70855;-43
2022/09/15 09:56:23;;;;;;;3.90;3.13;;;;;;;32.87;62.08;100634.81;5049296;28;66215;-43
2022/09/15 09:58:56;;;;;;;3.55;2.88;;;;;;;32.93;61.52;100640.13;5066234;28;70889;-42
2022/09/15 10:01:29;;;;;;;5.43;3.17;;;;;;;32.90;61.71;100643.34;5079432;28;66932;-42
2022/09/15 10:04:18;;;;;;;4.30;3.00;;;;;;;32.68;62.46;100615.97;5069347;27;70468;-42
2022/09/15 10:06:54;;;;;;;4.70;2.92;;;;;;;32.87;62.36;100635.63;5075171;28;66722;-43
2022/09/15 10:09:26;;;;;;;6.13;2.90;;;;;;;32.89;62.26;100633.50;5079791;28;71163;-43
2022/09/15 10:12:05;;;;;;;5.00;2.88;;;;;;;32.84;62.47;100641.53;5081199;27;65164;-43
2022/09/15 10:14:41;;;;;;;3.15;2.80;;;;;;;32.39;62.69;100557.19;5070840;28;70937;-42
2022/09/15 10:17:20;;;;;;;4.03;2.78;;;;;;;32.80;62.72;100629.53;5071421;28;66079;-42
2022/09/15 10:19:53;;;;;;;3.47;3.17;;;;;;;32.40;62.41;100559.69;5077712;28;70856;-42
2022/09/15 10:22:39;;;;;;;2.90;2.70;;;;;;;32.89;61.99;100646.28;5072048;28;66654;-45
2022/09/15 10:25:20;;;;;;;9.27;3.70;;;;;;;32.80;62.35;100640.38;5077173;28;70908;-42
2022/09/15 10:28:12;;;;;;;13.77;12.38;;;;;;;32.73;62.85;100650.53;5074631;28;67289;-42
2022/09/15 10:31:06;;;;;;;33.92;23.90;;;;;;;32.71;62.96;100652.69;5076335;28;70763;-49
2022/09/15 10:33:46;;;;;;;41.28;28.83;;;;;;;32.41;62.64;100599.31;5075943;28;66533;-44
2022/09/15 10:36:39;;;;;;;41.60;25.95;;;;;;;32.68;63.00;100655.88;5079042;27;70325;-42
2022/09/15 10:39:22;;;;;;;39.50;26.02;;;;;;;32.64;63.78;100641.13;5076075;28;67113;-42
2022/09/15 10:42:21;;;;;;;44.90;24.88;;;;;;;32.54;63.86;100635.47;5079664;27;70541;-43
2022/09/15 10:45:06;;;;;;;41.08;22.60;;;;;;;32.75;64.03;100662.00;5078442;28;66870;-45
2022/09/15 10:47:57;;;;;;;38.42;20.90;;;;;;;32.74;64.52;100662.25;5077926;28;70751;-43
2022/09/15 10:50:38;;;;;;;37.97;20.85;;;;;;;32.83;63.39;100664.34;5067336;28;66927;-45
2022/09/15 10:53:21;;;;;;;42.28;18.27;;;;;;;32.87;63.59;100673.66;5070370;27;71089;-43
2022/09/15 10:56:28;;;;;;;35.60;18.40;;;;;;;32.91;63.32;100683.00;5080663;27;66919;-44
2022/09/15 10:59:27;;;;;;;27.17;17.58;;;;;;;32.87;63.40;100679.09;5034530;28;70833;-44
2022/09/15 11:02:54;;;;;;;26.92;16.42;;;;;;;32.77;63.42;100673.47;5073857;28;66991;-44
2022/09/15 11:05:38;;;;;;;26.92;14.40;;;;;;;32.88;62.77;100686.22;5070764;28;70910;-44
2022/09/15 11:08:37;;;;;;;16.15;12.05;;;;;;;32.39;62.72;100603.34;5078025;27;67708;-44
2022/09/15 11:11:18;;;;;;;23.13;12.65;;;;;;;32.88;62.54;100686.22;5075126;27;70607;-44
2022/09/15 11:14:09;;;;;;;21.75;12.88;;;;;;;32.77;63.33;100678.91;5078671;28;66796;-45
2022/09/15 11:16:48;;;;;;;16.60;11.23;;;;;;;32.85;63.19;100681.25;5076356;27;71394;-44
2022/09/15 11:19:33;;;;;;;16.70;11.05;;;;;;;32.85;62.99;100678.53;5073343;28;66968;-44
2022/09/15 11:22:17;;;;;;;14.82;10.27;;;;;;;32.82;63.06;100700.75;5041419;28;69561;-46
2022/09/15 11:25:09;;;;;;;16.10;9.30;;;;;;;32.37;63.00;100630.72;5078837;27;66042;-51
2022/09/15 11:28:17;;;;;;;14.13;9.23;;;;;;;32.73;62.62;100691.28;5072618;27;71091;-45
2022/09/15 11:31:02;;;;;;;12.55;8.27;;;;;;;32.77;62.80;100705.25;5026802;28;66686;-46
2022/09/15 11:33:48;;;;;;;9.82;7.35;;;;;;;32.75;62.65;100713.63;5043344;28;69823;-44
2022/09/15 11:36:36;;;;;;;9.38;7.30;;;;;;;32.68;63.17;100718.31;5078047;27;66383;-46
2022/09/15 11:39:22;;;;;;;10.48;6.97;;;;;;;32.72;63.07;100724.97;5074944;27;70279;-44
2022/09/15 11:42:06;;;;;;;8.23;6.90;;;;;;;32.30;63.17;100672.63;5074453;27;67172;-44
2022/09/15 11:44:45;;;;;;;9.43;6.60;;;;;;;32.21;63.45;100666.72;5077869;27;70690;-44
2022/09/15 11:47:24;;;;;;;7.82;6.57;;;;;;;32.67;63.26;100762.84;5046530;28;66974;-46
2022/09/15 11:50:15;;;;;;;9.43;6.50;;;;;;;32.68;63.25;100757.19;5067583;28;70231;-44
2022/09/15 11:52:59;;;;;;;10.03;7.07;;;;;;;32.60;63.65;100764.88;5074729;28;67120;-45
2022/09/15 11:55:34;;;;;;;6.88;6.32;;;;;;;32.65;63.42;100773.13;5074637;28;69831;-44
2022/09/15 11:58:18;;;;;;;7.63;6.35;;;;;;;32.59;63.76;100771.34;5071664;27;66635;-45
2022/09/15 12:01:11;;;;;;;6.78;5.93;;;;;;;32.51;63.95;100777.13;5080191;27;69988;-46
2022/09/15 12:03:57;;;;;;;8.60;6.90;;;;;;;32.59;63.19;100785.75;5061265;27;67159;-43
2022/09/15 12:06:42;;;;;;;8.73;7.07;;;;;;;32.48;63.43;100767.56;5075926;28;69955;-45
2022/09/15 12:09:18;;;;;;;8.35;7.43;;;;;;;32.29;63.15;100734.22;5091013;27;66028;-45
2022/09/15 12:12:06;;;;;;;8.40;7.47;;;;;;;32.61;63.27;100804.53;5061674;27;70801;-44
2022/09/15 12:14:43;;;;;;;9.65;7.32;;;;;;;32.52;63.35;100781.50;5071799;28;66896;-45
2022/09/15 12:17:22;;;;;;;8.10;6.93;;;;;;;32.58;63.42;100810.44;5074237;28;70519;-44